createdAt,value
2019-02-28T00:00:01.988Z,0
2019-02-28T00:01:02.557Z,0
2019-02-28T00:02:03.126Z,0
2019-02-28T00:03:03.696Z,0
2019-02-28T00:04:04.264Z,0
2019-02-28T00:05:06.077Z,0
2019-02-28T00:06:11.279Z,0
2019-02-28T00:07:06.975Z,0
2019-02-28T00:08:07.544Z,0
2019-02-28T00:09:08.112Z,0
2019-02-28T00:10:08.680Z,0
2019-02-28T00:11:09.248Z,0
2019-02-28T00:12:10.215Z,0
2019-02-28T00:13:11.379Z,0
2019-02-28T00:14:11.947Z,0
2019-02-28T00:15:12.518Z,0
2019-02-28T00:16:13.086Z,0
2019-02-28T00:17:13.657Z,0
2019-02-28T00:18:15.188Z,0
2019-02-28T00:19:14.816Z,0
2019-02-28T00:20:15.384Z,0
2019-02-28T00:21:15.952Z,0
2019-02-28T00:22:16.521Z,0
2019-02-28T00:23:19.240Z,0
2019-02-28T00:24:18.650Z,0
2019-02-28T00:25:19.230Z,0
2019-02-28T00:26:19.798Z,0
2019-02-28T00:27:21.926Z,0
2019-02-28T00:28:23.138Z,0
2019-02-28T00:29:23.498Z,0
2019-02-28T00:30:24.069Z,0
2019-02-28T00:31:24.633Z,0
2019-02-28T00:32:25.556Z,0
2019-02-28T00:33:26.047Z,0
2019-02-28T00:34:26.617Z,0
2019-02-28T00:35:27.189Z,0
2019-02-28T00:36:27.755Z,0
2019-02-28T00:37:28.324Z,0
2019-02-28T00:38:29.689Z,0
2019-02-28T00:39:31.392Z,0
2019-02-28T00:40:32.021Z,0
2019-02-28T00:41:32.588Z,0
2019-02-28T00:42:33.167Z,0
2019-02-28T00:43:33.724Z,0
2019-02-28T00:44:34.291Z,0
2019-02-28T00:45:37.145Z,0
2019-02-28T00:46:36.424Z,0
2019-02-28T00:47:36.992Z,0
2019-02-28T00:48:37.561Z,0
2019-02-28T00:49:38.129Z,0
2019-02-28T00:50:38.709Z,0
2019-02-28T00:51:39.279Z,0
2019-02-28T00:52:39.849Z,0
2019-02-28T00:53:40.418Z,0
2019-02-28T00:54:44.142Z,0
2019-02-28T00:55:41.564Z,0
2019-02-28T00:56:42.130Z,0
2019-02-28T00:57:42.699Z,0
2019-02-28T00:58:43.267Z,0
2019-02-28T00:59:43.834Z,0
2019-02-28T01:00:44.403Z,0
2019-02-28T01:01:45.864Z,0
2019-02-28T01:02:51.880Z,0
2019-02-28T01:03:47.107Z,0
2019-02-28T01:04:47.674Z,0
2019-02-28T01:05:48.242Z,0
2019-02-28T01:06:48.811Z,0
2019-02-28T01:07:49.380Z,0
2019-02-28T01:08:49.961Z,0
2019-02-28T01:09:50.530Z,0
2019-02-28T01:10:51.099Z,0
2019-02-28T01:11:51.669Z,0
2019-02-28T01:12:54.403Z,0
2019-02-28T01:13:53.799Z,0
2019-02-28T01:14:54.380Z,0
2019-02-28T01:15:54.969Z,0
2019-02-28T01:16:55.528Z,0
2019-02-28T01:17:57.143Z,0
2019-02-28T01:18:56.676Z,0
2019-02-28T01:19:57.249Z,0
2019-02-28T01:20:57.814Z,0
2019-02-28T01:21:58.382Z,0
2019-02-28T01:22:59.364Z,0
2019-02-28T01:24:00.630Z,0
2019-02-28T01:25:00.126Z,0
2019-02-28T01:26:00.725Z,0
2019-02-28T01:27:01.293Z,0
2019-02-28T01:28:01.863Z,0
2019-02-28T01:29:02.778Z,0
2019-02-28T01:30:03.322Z,0
2019-02-28T01:31:03.890Z,0
2019-02-28T01:32:04.467Z,0
2019-02-28T01:33:05.031Z,0
2019-02-28T01:34:05.599Z,0
2019-02-28T01:35:06.964Z,0
2019-02-28T01:36:07.495Z,0
2019-02-28T01:37:08.064Z,0
2019-02-28T01:38:08.631Z,0
2019-02-28T01:39:09.200Z,0
2019-02-28T01:40:09.780Z,0
2019-02-28T01:41:11.178Z,0
2019-02-28T01:42:11.910Z,0
2019-02-28T01:43:12.478Z,0
2019-02-28T01:44:13.046Z,0
2019-02-28T01:45:13.613Z,0
2019-02-28T01:46:14.469Z,0
2019-02-28T01:47:15.747Z,0
2019-02-28T01:48:16.313Z,0
2019-02-28T01:49:16.881Z,0
2019-02-28T01:50:17.448Z,0
2019-02-28T01:51:18.017Z,0
2019-02-28T01:52:18.586Z,0
2019-02-28T01:53:19.711Z,0
2019-02-28T01:54:19.741Z,0
2019-02-28T01:55:20.309Z,0
2019-02-28T01:56:20.877Z,0
2019-02-28T01:57:21.458Z,0
2019-02-28T01:58:22.039Z,0
2019-02-28T01:59:22.610Z,0
2019-02-28T02:00:23.772Z,0
2019-02-28T02:01:24.735Z,0
2019-02-28T02:02:25.304Z,0
2019-02-28T02:03:25.872Z,0
2019-02-28T02:04:26.439Z,0
2019-02-28T02:05:27.008Z,0
2019-02-28T02:06:27.577Z,0
2019-02-28T02:07:30.539Z,0
2019-02-28T02:08:29.716Z,0
2019-02-28T02:09:30.296Z,0
2019-02-28T02:10:30.865Z,0
2019-02-28T02:11:31.444Z,0
2019-02-28T02:12:32.526Z,0
2019-02-28T02:13:36.629Z,0
2019-02-28T02:14:34.836Z,0
2019-02-28T02:15:35.409Z,0
2019-02-28T02:16:35.983Z,0
2019-02-28T02:17:36.551Z,0
2019-02-28T02:18:37.127Z,0
2019-02-28T02:19:37.688Z,0
2019-02-28T02:20:38.253Z,0
2019-02-28T02:21:38.835Z,0
2019-02-28T02:22:40.622Z,0
2019-02-28T02:23:40.979Z,0
2019-02-28T02:24:41.545Z,0
2019-02-28T02:25:42.113Z,0
2019-02-28T02:26:45.225Z,0
2019-02-28T02:27:44.245Z,0
2019-02-28T02:28:44.811Z,0
2019-02-28T02:29:45.380Z,0
2019-02-28T02:30:50.460Z,0
2019-02-28T02:31:46.524Z,0
2019-02-28T02:32:47.111Z,0
2019-02-28T02:33:52.529Z,0
2019-02-28T02:34:49.222Z,0
2019-02-28T02:35:49.794Z,0
2019-02-28T02:36:54.284Z,0
2019-02-28T02:37:51.932Z,0
2019-02-28T02:38:52.518Z,0
2019-02-28T02:39:53.068Z,0
2019-02-28T02:40:59.211Z,0
2019-02-28T02:41:55.200Z,0
2019-02-28T02:42:55.782Z,0
2019-02-28T02:43:56.352Z,0
2019-02-28T02:44:56.919Z,0
2019-02-28T02:45:57.500Z,0
2019-02-28T02:46:58.066Z,0
2019-02-28T02:47:58.637Z,0
2019-02-28T02:48:59.212Z,0
2019-02-28T02:49:59.780Z,0
2019-02-28T02:51:00.349Z,0
2019-02-28T02:52:00.930Z,0
2019-02-28T02:53:05.583Z,0
2019-02-28T02:54:03.070Z,0
2019-02-28T02:55:03.638Z,0
2019-02-28T02:56:05.048Z,0
2019-02-28T02:57:05.570Z,0
2019-02-28T02:58:06.141Z,0
2019-02-28T02:59:06.719Z,0
2019-02-28T03:00:13.270Z,0
2019-02-28T03:01:08.847Z,0
2019-02-28T03:02:09.416Z,0
2019-02-28T03:03:09.991Z,0
2019-02-28T03:04:10.561Z,0
2019-02-28T03:05:11.136Z,0
2019-02-28T03:06:13.797Z,0
2019-02-28T03:07:12.280Z,0
2019-02-28T03:08:12.876Z,0
2019-02-28T03:09:13.421Z,0
2019-02-28T03:10:17.535Z,0
2019-02-28T03:11:14.561Z,0
2019-02-28T03:12:15.178Z,0
2019-02-28T03:13:15.747Z,0
2019-02-28T03:14:17.534Z,0
2019-02-28T03:15:24.854Z,0
2019-02-28T03:16:18.455Z,0
2019-02-28T03:17:19.042Z,0
2019-02-28T03:18:20.475Z,0
2019-02-28T03:19:21.163Z,0
2019-02-28T03:20:21.730Z,0
2019-02-28T03:21:22.300Z,0
2019-02-28T03:22:28.315Z,0
2019-02-28T03:23:24.440Z,0
2019-02-28T03:24:25.030Z,0
2019-02-28T03:25:28.225Z,0
2019-02-28T03:26:27.150Z,0
2019-02-28T03:27:27.720Z,0
2019-02-28T03:28:32.050Z,0
2019-02-28T03:29:29.858Z,0
2019-02-28T03:30:32.779Z,0
2019-02-28T03:31:31.980Z,0
2019-02-28T03:32:39.240Z,0
2019-02-28T03:33:34.117Z,0
2019-02-28T03:34:34.679Z,0
2019-02-28T03:35:43.285Z,0
2019-02-28T03:36:36.866Z,0
2019-02-28T03:37:37.375Z,0
2019-02-28T03:38:37.943Z,0
2019-02-28T03:39:38.537Z,0
2019-02-28T03:40:40.437Z,0
2019-02-28T03:41:40.666Z,0
2019-02-28T03:42:41.246Z,0
2019-02-28T03:43:43.957Z,0
2019-02-28T03:44:42.390Z,0
2019-02-28T03:45:42.969Z,0
2019-02-28T03:46:46.833Z,0
2019-02-28T03:47:45.103Z,0
2019-02-28T03:48:45.682Z,0
2019-02-28T03:49:49.830Z,0
2019-02-28T03:50:47.838Z,0
2019-02-28T03:51:48.381Z,0
2019-02-28T03:52:48.949Z,0
2019-02-28T03:53:55.603Z,0
2019-02-28T03:54:51.079Z,0
2019-02-28T03:55:51.648Z,0
2019-02-28T03:56:53.361Z,0
2019-02-28T03:57:53.778Z,0
2019-02-28T03:58:54.344Z,0
2019-02-28T03:59:56.770Z,0
2019-02-28T04:00:56.474Z,0
2019-02-28T04:01:57.043Z,0
2019-02-28T04:02:59.113Z,0
2019-02-28T04:03:58.198Z,0
2019-02-28T04:04:58.766Z,0
2019-02-28T04:06:03.297Z,0
2019-02-28T04:07:00.900Z,0
2019-02-28T04:08:01.470Z,0
2019-02-28T04:09:07.007Z,0
2019-02-28T04:10:03.610Z,0
2019-02-28T04:11:04.186Z,0
2019-02-28T04:12:08.769Z,0
2019-02-28T04:13:06.314Z,0
2019-02-28T04:14:06.903Z,0
2019-02-28T04:15:10.049Z,0
2019-02-28T04:16:09.815Z,0
2019-02-28T04:17:09.597Z,0
2019-02-28T04:18:10.168Z,0
2019-02-28T04:19:10.753Z,0
2019-02-28T04:20:11.336Z,0
2019-02-28T04:21:12.231Z,0
2019-02-28T04:22:12.469Z,0
2019-02-28T04:23:13.038Z,0
2019-02-28T04:24:14.136Z,0
2019-02-28T04:25:14.185Z,0
2019-02-28T04:26:14.768Z,0
2019-02-28T04:27:15.351Z,0
2019-02-28T04:28:18.548Z,0
2019-02-28T04:29:17.475Z,0
2019-02-28T04:30:18.047Z,0
2019-02-28T04:31:20.196Z,0
2019-02-28T04:32:26.576Z,0
2019-02-28T04:33:21.756Z,0
2019-02-28T04:34:22.332Z,0
2019-02-28T04:35:25.350Z,0
2019-02-28T04:36:24.466Z,0
2019-02-28T04:37:25.043Z,0
2019-02-28T04:38:25.607Z,0
2019-02-28T04:39:26.175Z,0
2019-02-28T04:40:27.099Z,0
2019-02-28T04:41:32.519Z,0
2019-02-28T04:42:29.725Z,0
2019-02-28T04:43:30.314Z,0
2019-02-28T04:44:30.862Z,0
2019-02-28T04:45:31.434Z,0
2019-02-28T04:46:32.612Z,0
2019-02-28T04:47:33.168Z,0
2019-02-28T04:48:33.737Z,0
2019-02-28T04:49:34.319Z,0
2019-02-28T04:50:34.909Z,0
2019-02-28T04:51:37.061Z,0
2019-02-28T04:52:37.029Z,0
2019-02-28T04:53:37.597Z,0
2019-02-28T04:54:38.168Z,0
2019-02-28T04:55:38.748Z,0
2019-02-28T04:56:39.314Z,0
2019-02-28T04:57:39.882Z,0
2019-02-28T04:58:40.450Z,0
2019-02-28T04:59:41.029Z,0
2019-02-28T05:00:41.597Z,0
2019-02-28T05:01:45.211Z,0
2019-02-28T05:02:43.726Z,0
2019-02-28T05:03:44.294Z,0
2019-02-28T05:04:44.865Z,0
2019-02-28T05:05:46.898Z,0
2019-02-28T05:06:46.007Z,0
2019-02-28T05:07:46.586Z,0
2019-02-28T05:08:47.154Z,0
2019-02-28T05:09:48.240Z,0
2019-02-28T05:10:49.253Z,0
2019-02-28T05:11:49.818Z,0
2019-02-28T05:12:50.384Z,0
2019-02-28T05:13:50.952Z,0
2019-02-28T05:14:51.521Z,0
2019-02-28T05:15:52.086Z,0
2019-02-28T05:16:52.668Z,0
2019-02-28T05:17:56.026Z,0
2019-02-28T05:18:53.809Z,0
2019-02-28T05:19:55.204Z,0
2019-02-28T05:20:54.956Z,0
2019-02-28T05:21:55.523Z,0
2019-02-28T05:22:56.090Z,0
2019-02-28T05:23:56.657Z,0
2019-02-28T05:24:57.224Z,0
2019-02-28T05:25:57.811Z,0
2019-02-28T05:27:00.102Z,0
2019-02-28T05:27:58.957Z,0
2019-02-28T05:28:59.522Z,0
2019-02-28T05:30:00.117Z,0
2019-02-28T05:31:00.711Z,0
2019-02-28T05:32:01.924Z,0
2019-02-28T05:33:02.453Z,0
2019-02-28T05:34:03.018Z,0
2019-02-28T05:35:03.585Z,0
2019-02-28T05:36:04.416Z,0
2019-02-28T05:37:04.735Z,0
2019-02-28T05:38:05.314Z,0
2019-02-28T05:39:05.883Z,0
2019-02-28T05:40:06.946Z,0
2019-02-28T05:41:12.172Z,0
2019-02-28T05:42:12.448Z,0
2019-02-28T05:43:13.015Z,0
2019-02-28T05:44:13.582Z,0
2019-02-28T05:45:14.882Z,0
2019-02-28T05:46:15.710Z,0
2019-02-28T05:47:16.278Z,0
2019-02-28T05:48:16.845Z,0
2019-02-28T05:49:17.414Z,0
2019-02-28T05:50:17.995Z,0
2019-02-28T05:51:18.575Z,0
2019-02-28T05:52:19.151Z,0
2019-02-28T05:53:19.711Z,0
2019-02-28T05:54:20.292Z,0
2019-02-28T05:55:24.643Z,0
2019-02-28T05:56:22.420Z,0
2019-02-28T05:57:22.988Z,0
2019-02-28T05:58:23.554Z,0
2019-02-28T05:59:27.384Z,4
2019-02-28T06:00:25.683Z,0
2019-02-28T06:01:26.251Z,0
2019-02-28T06:02:26.818Z,0
2019-02-28T06:03:29.514Z,4
2019-02-28T06:04:28.954Z,0
2019-02-28T06:05:29.516Z,4
2019-02-28T06:06:30.100Z,0
2019-02-28T06:07:30.651Z,4
2019-02-28T06:08:31.218Z,4
2019-02-28T06:09:31.786Z,4
2019-02-28T06:10:32.351Z,4
2019-02-28T06:11:35.479Z,4
2019-02-28T06:12:34.483Z,8
2019-02-28T06:13:36.895Z,8
2019-02-28T06:14:36.611Z,8
2019-02-28T06:15:37.899Z,8
2019-02-28T06:16:38.422Z,12
2019-02-28T06:17:39.016Z,12
2019-02-28T06:18:39.569Z,12
2019-02-28T06:19:43.216Z,12
2019-02-28T06:20:41.702Z,16
2019-02-28T06:21:42.272Z,16
2019-02-28T06:22:42.839Z,16
2019-02-28T06:23:43.419Z,16
2019-02-28T06:24:44.777Z,20
2019-02-28T06:25:45.551Z,20
2019-02-28T06:26:46.121Z,24
2019-02-28T06:27:50.288Z,28
2019-02-28T06:28:47.266Z,28
2019-02-28T06:29:47.835Z,28
2019-02-28T06:30:48.405Z,32
2019-02-28T06:31:49.468Z,32
2019-02-28T06:32:49.552Z,36
2019-02-28T06:33:50.119Z,36
2019-02-28T06:34:50.687Z,40
2019-02-28T06:35:53.569Z,40
2019-02-28T06:36:51.841Z,44
2019-02-28T06:37:52.412Z,44
2019-02-28T06:38:54.584Z,48
2019-02-28T06:39:54.541Z,48
2019-02-28T06:40:55.114Z,52
2019-02-28T06:41:55.679Z,52
2019-02-28T06:42:56.260Z,56
2019-02-28T06:43:56.825Z,60
2019-02-28T06:44:58.706Z,60
2019-02-28T06:45:58.957Z,64
2019-02-28T06:46:59.545Z,72
2019-02-28T06:48:00.120Z,72
2019-02-28T06:49:05.935Z,76
2019-02-28T06:50:01.262Z,80
2019-02-28T06:51:01.829Z,80
2019-02-28T06:52:02.398Z,84
2019-02-28T06:53:02.978Z,84
2019-02-28T06:54:04.365Z,92
2019-02-28T06:55:05.107Z,88
2019-02-28T06:56:05.679Z,92
2019-02-28T06:57:06.260Z,96
2019-02-28T06:58:06.828Z,100
2019-02-28T06:59:07.399Z,100
2019-02-28T07:00:10.402Z,104
2019-02-28T07:01:08.573Z,104
2019-02-28T07:02:09.109Z,112
2019-02-28T07:03:09.691Z,112
2019-02-28T07:04:11.452Z,116
2019-02-28T07:05:10.841Z,120
2019-02-28T07:06:11.409Z,124
2019-02-28T07:07:13.656Z,120
2019-02-28T07:08:13.542Z,124
2019-02-28T07:09:14.110Z,128
2019-02-28T07:10:14.679Z,128
2019-02-28T07:11:15.249Z,132
2019-02-28T07:12:15.828Z,136
2019-02-28T07:13:16.400Z,136
2019-02-28T07:14:16.969Z,144
2019-02-28T07:15:23.536Z,148
2019-02-28T07:16:19.108Z,152
2019-02-28T07:17:19.670Z,152
2019-02-28T07:18:20.252Z,156
2019-02-28T07:19:20.821Z,156
2019-02-28T07:20:21.407Z,160
2019-02-28T07:21:21.972Z,160
2019-02-28T07:22:22.541Z,160
2019-02-28T07:23:23.114Z,164
2019-02-28T07:24:23.710Z,168
2019-02-28T07:25:24.263Z,172
2019-02-28T07:26:24.832Z,172
2019-02-28T07:27:26.670Z,172
2019-02-28T07:28:26.966Z,172
2019-02-28T07:29:27.539Z,176
2019-02-28T07:30:28.102Z,180
2019-02-28T07:31:28.678Z,180
2019-02-28T07:32:31.378Z,180
2019-02-28T07:33:30.806Z,184
2019-02-28T07:34:31.379Z,188
2019-02-28T07:35:34.211Z,188
2019-02-28T07:36:33.515Z,188
2019-02-28T07:37:34.081Z,188
2019-02-28T07:38:34.649Z,196
2019-02-28T07:39:36.556Z,196
2019-02-28T07:40:36.789Z,200
2019-02-28T07:41:37.356Z,200
2019-02-28T07:42:38.598Z,204
2019-02-28T07:43:39.239Z,208
2019-02-28T07:44:39.808Z,212
2019-02-28T07:45:40.392Z,212
2019-02-28T07:46:42.598Z,212
2019-02-28T07:47:42.526Z,216
2019-02-28T07:48:43.097Z,220
2019-02-28T07:49:43.729Z,220
2019-02-28T07:50:46.715Z,220
2019-02-28T07:51:45.817Z,224
2019-02-28T07:52:46.387Z,228
2019-02-28T07:53:46.959Z,232
2019-02-28T07:54:51.524Z,232
2019-02-28T07:55:48.109Z,236
2019-02-28T07:56:48.716Z,236
2019-02-28T07:57:54.259Z,236
2019-02-28T07:58:50.836Z,240
2019-02-28T07:59:51.408Z,240
2019-02-28T08:00:52.875Z,244
2019-02-28T08:01:53.544Z,248
2019-02-28T08:02:54.118Z,252
2019-02-28T08:03:54.688Z,256
2019-02-28T08:04:55.750Z,256
2019-02-28T08:05:56.361Z,260
2019-02-28T08:06:56.920Z,260
2019-02-28T08:07:57.490Z,268
2019-02-28T08:08:58.073Z,268
2019-02-28T08:09:58.643Z,272
2019-02-28T08:10:59.226Z,276
2019-02-28T08:11:59.798Z,280
2019-02-28T08:13:03.076Z,284
2019-02-28T08:14:01.934Z,284
2019-02-28T08:15:02.506Z,292
2019-02-28T08:16:03.078Z,300
2019-02-28T08:17:05.420Z,300
2019-02-28T08:18:05.902Z,304
2019-02-28T08:19:05.791Z,308
2019-02-28T08:20:06.373Z,316
2019-02-28T08:21:08.801Z,320
2019-02-28T08:22:07.523Z,328
2019-02-28T08:23:08.097Z,336
2019-02-28T08:24:08.666Z,344
2019-02-28T08:25:09.238Z,352
2019-02-28T08:26:09.820Z,360
2019-02-28T08:27:10.397Z,368
2019-02-28T08:28:10.964Z,372
2019-02-28T08:29:11.752Z,372
2019-02-28T08:30:12.282Z,380
2019-02-28T08:31:12.871Z,396
2019-02-28T08:32:13.428Z,408
2019-02-28T08:33:16.315Z,416
2019-02-28T08:34:15.569Z,404
2019-02-28T08:35:16.134Z,400
2019-02-28T08:36:16.713Z,408
2019-02-28T08:37:19.027Z,416
2019-02-28T08:38:18.842Z,424
2019-02-28T08:39:19.422Z,428
2019-02-28T08:40:19.990Z,424
2019-02-28T08:41:22.599Z,412
2019-02-28T08:42:21.152Z,420
2019-02-28T08:43:27.180Z,424
2019-02-28T08:44:24.098Z,428
2019-02-28T08:45:23.867Z,424
2019-02-28T08:46:24.442Z,396
2019-02-28T08:47:25.012Z,344
2019-02-28T08:48:31.539Z,316
2019-02-28T08:49:26.168Z,312
2019-02-28T08:50:26.739Z,304
2019-02-28T08:51:27.767Z,296
2019-02-28T08:52:27.891Z,300
2019-02-28T08:53:28.461Z,296
2019-02-28T08:54:29.031Z,292
2019-02-28T08:55:29.603Z,292
2019-02-28T08:56:32.207Z,296
2019-02-28T08:57:31.743Z,304
2019-02-28T08:58:32.314Z,308
2019-02-28T08:59:32.887Z,312
2019-02-28T09:00:33.522Z,320
2019-02-28T09:01:34.044Z,328
2019-02-28T09:02:34.615Z,340
2019-02-28T09:03:35.190Z,352
2019-02-28T09:04:41.238Z,368
2019-02-28T09:05:37.324Z,392
2019-02-28T09:06:41.035Z,416
2019-02-28T09:07:39.460Z,404
2019-02-28T09:08:40.033Z,420
2019-02-28T09:09:40.606Z,428
2019-02-28T09:10:43.726Z,428
2019-02-28T09:11:42.742Z,432
2019-02-28T09:12:43.315Z,432
2019-02-28T09:13:43.885Z,420
2019-02-28T09:14:44.457Z,404
2019-02-28T09:15:45.041Z,396
2019-02-28T09:16:45.612Z,384
2019-02-28T09:17:46.183Z,384
2019-02-28T09:18:46.767Z,384
2019-02-28T09:19:47.337Z,384
2019-02-28T09:20:47.910Z,384
2019-02-28T09:21:49.364Z,384
2019-02-28T09:22:50.049Z,392
2019-02-28T09:23:50.636Z,396
2019-02-28T09:24:51.204Z,400
2019-02-28T09:25:53.391Z,412
2019-02-28T09:26:53.344Z,424
2019-02-28T09:27:53.915Z,404
2019-02-28T09:28:54.487Z,420
2019-02-28T09:29:55.615Z,404
2019-02-28T09:30:56.152Z,444
2019-02-28T09:31:56.737Z,400
2019-02-28T09:32:57.777Z,396
2019-02-28T09:33:58.912Z,412
2019-02-28T09:35:02.574Z,400
2019-02-28T09:36:01.434Z,388
2019-02-28T09:37:02.007Z,384
2019-02-28T09:38:06.434Z,388
2019-02-28T09:39:04.141Z,388
2019-02-28T09:40:04.714Z,400
2019-02-28T09:41:05.463Z,416
2019-02-28T09:42:06.021Z,436
2019-02-28T09:43:06.598Z,456
2019-02-28T09:44:07.227Z,484
2019-02-28T09:45:07.869Z,508
2019-02-28T09:46:09.090Z,500
2019-02-28T09:47:11.690Z,524
2019-02-28T09:48:10.277Z,532
2019-02-28T09:49:12.938Z,540
2019-02-28T09:50:12.412Z,572
2019-02-28T09:51:12.994Z,604
2019-02-28T09:52:13.565Z,592
2019-02-28T09:53:16.475Z,580
2019-02-28T09:54:15.703Z,600
2019-02-28T09:55:16.277Z,600
2019-02-28T09:56:16.847Z,588
2019-02-28T09:57:18.968Z,568
2019-02-28T09:58:18.988Z,572
2019-02-28T09:59:19.561Z,572
2019-02-28T10:00:20.132Z,584
2019-02-28T10:01:21.208Z,600
2019-02-28T10:02:22.270Z,600
2019-02-28T10:03:22.842Z,608
2019-02-28T10:04:23.413Z,580
2019-02-28T10:05:23.993Z,556
2019-02-28T10:06:24.558Z,540
2019-02-28T10:07:26.442Z,544
2019-02-28T10:08:26.749Z,536
2019-02-28T10:09:27.321Z,564
2019-02-28T10:10:27.894Z,548
2019-02-28T10:11:31.678Z,540
2019-02-28T10:12:30.033Z,508
2019-02-28T10:13:31.070Z,572
2019-02-28T10:14:31.745Z,588
2019-02-28T10:15:32.307Z,596
2019-02-28T10:16:32.879Z,596
2019-02-28T10:17:33.451Z,592
2019-02-28T10:18:35.606Z,596
2019-02-28T10:19:44.813Z,596
2019-02-28T10:20:37.159Z,588
2019-02-28T10:21:39.639Z,572
2019-02-28T10:22:39.308Z,584
2019-02-28T10:23:39.880Z,576
2019-02-28T10:24:40.455Z,600
2019-02-28T10:25:43.498Z,596
2019-02-28T10:26:41.612Z,608
2019-02-28T10:27:42.197Z,608
2019-02-28T10:28:42.770Z,600
2019-02-28T10:29:43.344Z,576
2019-02-28T10:30:43.922Z,612
2019-02-28T10:31:44.506Z,596
2019-02-28T10:32:45.088Z,624
2019-02-28T10:33:45.663Z,600
2019-02-28T10:34:46.252Z,588
2019-02-28T10:35:46.823Z,624
2019-02-28T10:36:47.765Z,632
2019-02-28T10:37:48.973Z,652
2019-02-28T10:38:49.546Z,644
2019-02-28T10:39:50.120Z,648
2019-02-28T10:40:52.474Z,616
2019-02-28T10:41:52.260Z,612
2019-02-28T10:42:52.833Z,608
2019-02-28T10:43:55.850Z,628
2019-02-28T10:44:54.972Z,612
2019-02-28T10:45:55.547Z,588
2019-02-28T10:46:56.120Z,636
2019-02-28T10:47:56.693Z,616
2019-02-28T10:48:57.266Z,628
2019-02-28T10:49:58.284Z,636
2019-02-28T10:50:59.346Z,636
2019-02-28T10:51:59.921Z,640
2019-02-28T10:53:04.087Z,616
2019-02-28T10:54:02.059Z,588
2019-02-28T10:55:02.645Z,576
2019-02-28T10:56:03.368Z,568
2019-02-28T10:57:05.966Z,496
2019-02-28T10:58:05.509Z,484
2019-02-28T10:59:06.082Z,500
2019-02-28T11:00:06.654Z,512
2019-02-28T11:01:08.651Z,532
2019-02-28T11:02:08.795Z,544
2019-02-28T11:03:09.379Z,544
2019-02-28T11:04:09.942Z,536
2019-02-28T11:05:10.515Z,496
2019-02-28T11:06:11.088Z,472
2019-02-28T11:07:11.660Z,464
2019-02-28T11:08:12.801Z,496
2019-02-28T11:09:13.814Z,520
2019-02-28T11:10:14.387Z,540
2019-02-28T11:11:14.960Z,564
2019-02-28T11:12:19.627Z,576
2019-02-28T11:13:17.152Z,600
2019-02-28T11:14:17.724Z,608
2019-02-28T11:15:18.300Z,620
2019-02-28T11:16:20.455Z,596
2019-02-28T11:17:19.567Z,600
2019-02-28T11:18:20.151Z,580
2019-02-28T11:19:20.723Z,576
2019-02-28T11:20:22.371Z,588
2019-02-28T11:21:22.866Z,588
2019-02-28T11:22:23.453Z,564
2019-02-28T11:23:24.026Z,560
2019-02-28T11:24:27.018Z,588
2019-02-28T11:25:26.165Z,592
2019-02-28T11:26:26.739Z,572
2019-02-28T11:27:27.324Z,564
2019-02-28T11:28:29.200Z,540
2019-02-28T11:29:29.464Z,508
2019-02-28T11:30:30.050Z,500
2019-02-28T11:31:30.634Z,512
2019-02-28T11:32:31.215Z,544
2019-02-28T11:33:31.794Z,568
2019-02-28T11:34:32.378Z,576
2019-02-28T11:35:32.953Z,536
2019-02-28T11:36:34.158Z,508
2019-02-28T11:37:35.098Z,520
2019-02-28T11:38:35.670Z,524
2019-02-28T11:39:36.244Z,484
2019-02-28T11:40:36.816Z,528
2019-02-28T11:41:37.402Z,624
2019-02-28T11:42:37.977Z,668
2019-02-28T11:43:38.679Z,680
2019-02-28T11:44:39.190Z,648
2019-02-28T11:45:39.778Z,608
2019-02-28T11:46:40.347Z,568
2019-02-28T11:47:42.667Z,556
2019-02-28T11:48:42.488Z,536
2019-02-28T11:49:43.063Z,504
2019-02-28T11:50:44.949Z,476
2019-02-28T11:51:45.201Z,468
2019-02-28T11:52:45.774Z,476
2019-02-28T11:53:46.352Z,480
2019-02-28T11:54:46.931Z,472
2019-02-28T11:55:47.504Z,456
2019-02-28T11:56:48.076Z,460
2019-02-28T11:57:48.661Z,468
2019-02-28T11:58:51.660Z,480
2019-02-28T11:59:50.800Z,472
2019-02-28T12:00:51.373Z,476
2019-02-28T12:01:51.947Z,480
2019-02-28T12:02:53.480Z,484
2019-02-28T12:03:54.090Z,484
2019-02-28T12:04:54.664Z,484
2019-02-28T12:05:55.238Z,488
2019-02-28T12:06:57.474Z,496
2019-02-28T12:07:57.377Z,500
2019-02-28T12:08:57.952Z,508
2019-02-28T12:09:58.525Z,504
2019-02-28T12:11:01.869Z,504
2019-02-28T12:12:00.665Z,508
2019-02-28T12:13:01.254Z,512
2019-02-28T12:14:01.824Z,512
2019-02-28T12:15:02.753Z,516
2019-02-28T12:16:03.967Z,516
2019-02-28T12:17:04.535Z,520
2019-02-28T12:18:05.108Z,524
2019-02-28T12:19:05.691Z,524
2019-02-28T12:20:06.265Z,524
2019-02-28T12:21:06.838Z,524
2019-02-28T12:22:09.223Z,528
2019-02-28T12:23:08.000Z,532
2019-02-28T12:24:08.580Z,540
2019-02-28T12:25:09.155Z,540
2019-02-28T12:26:09.738Z,552
2019-02-28T12:27:10.351Z,560
2019-02-28T12:28:10.884Z,568
2019-02-28T12:29:12.866Z,576
2019-02-28T12:30:13.023Z,572
2019-02-28T12:31:13.596Z,568
2019-02-28T12:32:14.170Z,576
2019-02-28T12:33:15.328Z,596
2019-02-28T12:34:16.312Z,632
2019-02-28T12:35:16.887Z,636
2019-02-28T12:36:17.459Z,672
2019-02-28T12:37:18.033Z,680
2019-02-28T12:38:18.605Z,684
2019-02-28T12:39:19.178Z,680
2019-02-28T12:40:19.763Z,676
2019-02-28T12:41:21.624Z,668
2019-02-28T12:42:22.331Z,652
2019-02-28T12:43:22.915Z,632
2019-02-28T12:44:23.491Z,628
2019-02-28T12:45:24.357Z,616
2019-02-28T12:46:25.631Z,608
2019-02-28T12:47:26.202Z,604
2019-02-28T12:48:27.265Z,588
2019-02-28T12:49:27.841Z,588
2019-02-28T12:50:29.437Z,596
2019-02-28T12:51:29.006Z,612
2019-02-28T12:52:29.579Z,612
2019-02-28T12:53:30.153Z,616
2019-02-28T12:54:33.495Z,616
2019-02-28T12:55:32.292Z,620
2019-02-28T12:56:32.866Z,628
2019-02-28T12:57:33.439Z,636
2019-02-28T12:58:38.750Z,648
2019-02-28T12:59:35.596Z,656
2019-02-28T13:00:36.164Z,660
2019-02-28T13:01:36.738Z,668
2019-02-28T13:02:39.738Z,680
2019-02-28T13:03:38.900Z,684
2019-02-28T13:04:39.480Z,688
2019-02-28T13:05:40.048Z,684
2019-02-28T13:06:40.623Z,684
2019-02-28T13:07:41.199Z,688
2019-02-28T13:08:42.457Z,684
2019-02-28T13:09:43.010Z,684
2019-02-28T13:10:43.612Z,688
2019-02-28T13:11:44.170Z,684
2019-02-28T13:12:48.938Z,676
2019-02-28T13:13:46.331Z,672
2019-02-28T13:14:46.901Z,684
2019-02-28T13:15:49.239Z,684
2019-02-28T13:16:48.052Z,692
2019-02-28T13:17:48.628Z,692
2019-02-28T13:18:49.202Z,700
2019-02-28T13:19:53.196Z,696
2019-02-28T13:20:51.343Z,692
2019-02-28T13:21:51.918Z,684
2019-02-28T13:22:55.563Z,668
2019-02-28T13:23:54.058Z,672
2019-02-28T13:24:54.634Z,660
2019-02-28T13:25:59.091Z,656
2019-02-28T13:26:56.776Z,660
2019-02-28T13:27:57.370Z,680
2019-02-28T13:28:58.157Z,700
2019-02-28T13:29:58.668Z,708
2019-02-28T13:30:59.240Z,712
2019-02-28T13:32:01.398Z,700
2019-02-28T13:33:01.381Z,712
2019-02-28T13:34:01.955Z,704
2019-02-28T13:35:03.139Z,704
2019-02-28T13:36:04.103Z,664
2019-02-28T13:37:04.683Z,656
2019-02-28T13:38:05.256Z,656
2019-02-28T13:39:05.827Z,632
2019-02-28T13:40:08.602Z,636
2019-02-28T13:41:07.978Z,596
2019-02-28T13:42:08.542Z,596
2019-02-28T13:43:09.127Z,604
2019-02-28T13:44:09.703Z,624
2019-02-28T13:45:16.200Z,636
2019-02-28T13:46:12.997Z,640
2019-02-28T13:47:13.409Z,656
2019-02-28T13:48:13.989Z,648
2019-02-28T13:49:15.561Z,644
2019-02-28T13:50:17.181Z,648
2019-02-28T13:51:15.720Z,636
2019-02-28T13:52:20.562Z,628
2019-02-28T13:53:18.748Z,636
2019-02-28T13:54:19.442Z,648
2019-02-28T13:55:20.219Z,644
2019-02-28T13:56:20.717Z,644
2019-02-28T13:57:21.291Z,648
2019-02-28T13:58:22.372Z,672
2019-02-28T13:59:22.925Z,680
2019-02-28T14:00:23.515Z,700
2019-02-28T14:01:24.089Z,740
2019-02-28T14:02:26.247Z,772
2019-02-28T14:03:26.225Z,796
2019-02-28T14:04:27.202Z,820
2019-02-28T14:05:27.748Z,824
2019-02-28T14:06:28.320Z,820
2019-02-28T14:07:30.175Z,848
2019-02-28T14:08:30.467Z,840
2019-02-28T14:09:31.050Z,844
2019-02-28T14:10:33.475Z,840
2019-02-28T14:11:33.189Z,856
2019-02-28T14:12:33.779Z,864
2019-02-28T14:13:34.898Z,828
2019-02-28T14:14:35.489Z,820
2019-02-28T14:15:36.063Z,844
2019-02-28T14:16:36.639Z,832
2019-02-28T14:17:37.211Z,836
2019-02-28T14:18:37.786Z,848
2019-02-28T14:19:38.361Z,832
2019-02-28T14:20:38.945Z,816
2019-02-28T14:21:39.522Z,820
2019-02-28T14:22:42.684Z,820
2019-02-28T14:23:41.668Z,812